EST,Max TemperatureF,Mean TemperatureF,Min TemperatureF,Max Dew PointF,MeanDew PointF,Min DewpointF,Max Humidity, Mean Humidity, Min Humidity, Max Sea Level PressureIn, Mean Sea Level PressureIn, Min Sea Level PressureIn, Max VisibilityMiles, Mean VisibilityMiles, Min VisibilityMiles, Max Wind SpeedMPH, Mean Wind SpeedMPH, Max Gust SpeedMPH,PrecipitationIn, CloudCover, Events, WindDirDegrees
2012-11-1,43,38,33,36,32,29,95,77,61,29.78,29.67,29.62,10,9,2,23,15,29,0.00,8,Rain-Snow,307
2012-11-2,37,34,32,32,31,27,96,89,72,30.11,29.95,29.78,10,6,1,18,11,25,0.00,8,Snow,328
2012-11-3,34,32,31,28,26,24,83,75,71,30.22,30.19,30.12,10,10,5,13,8,17,0.00,8,,346
2012-11-4,35,34,32,29,27,25,84,76,67,30.23,30.21,30.19,10,10,10,10,4,16,0.00,7,,356
2012-11-5,34,32,28,26,22,19,79,68,60,30.27,30.23,30.15,10,10,10,12,6,18,0.00,8,,85
2012-11-6,40,32,25,26,25,21,87,67,53,30.15,30.04,29.97,10,10,10,9,3,,0.00,8,,148
2012-11-7,43,38,30,31,29,26,88,71,58,30.16,30.11,30.03,10,10,10,10,3,,0.00,7,,144
2012-11-8,48,38,27,36,33,26,93,76,59,30.16,30.10,30.03,10,10,7,12,3,,0.00,7,,196
2012-11-9,49,44,40,40,39,36,86,80,67,30.15,30.10,30.04,10,9,5,8,4,,0.00,8,,273
2012-11-10,47,44,41,46,41,37,97,90,81,30.18,30.07,29.88,10,6,2,20,11,28,0.00,8,Rain,99
2012-11-11,68,56,44,52,48,44,97,75,53,29.90,29.81,29.70,10,8,2,17,6,29,0.00,3,Rain,164
2012-11-12,53,40,27,52,33,17,94,82,66,30.08,29.87,29.72,10,8,1,17,10,26,0.00,8,Rain-Snow,235
2012-11-13,37,32,27,29,24,18,81,71,60,30.47,30.32,30.09,10,10,10,13,7,18,0.00,4,Snow,239
2012-11-14,38,33,28,28,25,21,80,71,65,30.50,30.45,30.37,10,10,10,9,6,,0.00,4,,168
2012-11-15,50,42,33,35,29,25,76,65,47,30.36,30.30,30.24,10,10,10,10,5,,0.00,5,,194
2012-11-16,42,33,24,36,26,15,90,74,36,30.50,30.44,30.31,10,10,7,8,4,,0.00,0,,307
2012-11-17,39,31,23,36,32,21,99,95,86,30.55,30.52,30.49,10,3,0,8,2,,0.00,5,Fog,162
2012-11-18,55,44,32,36,32,27,98,71,36,30.50,30.44,30.38,10,8,4,8,5,,0.00,0,,166
2012-11-19,51,41,31,41,35,30,97,78,58,30.37,30.25,30.13,10,9,2,7,4,,0.00,3,,154
2012-11-20,51,44,38,43,40,33,97,83,62,30.14,30.11,30.08,10,7,0,6,1,,0.00,8,Fog-Rain,168
2012-11-21,55,49,43,44,42,35,97,80,60,30.17,30.08,29.96,10,6,2,12,3,,0.00,4,,190
2012-11-22,69,58,47,45,37,32,68,49,26,29.95,29.77,29.54,10,10,10,22,8,33,0.00,2,,196
2012-11-23,58,44,29,48,31,22,92,78,63,29.90,29.62,29.47,10,8,0,29,17,44,0.00,7,Snow,264
2012-11-24,29,28,26,22,19,17,76,69,63,30.06,30.00,29.91,10,10,10,24,14,33,0.00,7,,306
2012-11-25,32,30,27,28,25,21,93,83,67,29.92,29.79,29.72,10,8,2,18,5,25,0.00,8,Snow,233
2012-11-26,31,26,22,23,19,14,83,68,54,30.25,30.10,29.90,10,10,3,14,9,21,0.00,7,Snow,278
2012-11-27,34,28,23,28,20,18,91,67,57,30.25,30.17,30.04,10,10,1,16,7,23,0.00,7,Snow,223
2012-11-28,31,28,24,29,21,16,94,75,59,30.20,30.13,30.03,10,8,1,16,9,21,0.00,7,Snow,272
2012-11-29,32,29,26,27,23,16,84,77,65,30.32,30.19,30.07,10,10,10,13,7,,0.00,7,,13
2012-11-30,32,28,26,29,24,18,95,86,71,30.37,30.34,30.30,10,7,2,16,10,22,0.00,8,Snow,92